Time;durP1;ratioP1;P1;durP2;ratioP2;P2;SDS_P1;SDS_P2;PMS_P1;PMS_P2;Temp;Humidity;BMP_temperature;BMP_pressure;BME280_temperature;BME280_humidity;BME280_pressure;Samples;Min_cycle;Max_cycle;Signal;HPM_P1;HPM_P2
2021/04/09 00:01:10;;;;;;;21.57;15.80;;;;;;;;;;5078893;28;20617;-68
2021/04/09 00:03:35;;;;;;;21.13;15.80;;;;;;;;;;5081658;28;20177;-67
2021/04/09 00:06:00;;;;;;;23.67;16.60;;;;;;;;;;5077752;28;20192;-68
2021/04/09 00:08:25;;;;;;;19.90;15.87;;;;;;;;;;5089628;28;20184;-68
2021/04/09 00:10:51;;;;;;;24.77;16.17;;;;;;;;;;5081101;28;20295;-68
2021/04/09 00:13:16;;;;;;;18.97;15.87;;;;;;;;;;5082743;28;20184;-67
2021/04/09 00:15:41;;;;;;;22.90;16.50;;;;;;;;;;5082665;28;20184;-67
2021/04/09 00:18:06;;;;;;;21.90;15.80;;;;;;;;;;5081735;28;20705;-67
2021/04/09 00:20:31;;;;;;;25.33;15.93;;;;;;;;;;5081928;28;20196;-68
2021/04/09 00:22:56;;;;;;;23.07;16.53;;;;;;;;;;5074505;28;20251;-66
2021/04/09 00:25:22;;;;;;;23.80;16.67;;;;;;;;;;5082584;28;20621;-68
2021/04/09 00:27:47;;;;;;;21.20;15.53;;;;;;;;;;5082643;28;20688;-67
2021/04/09 00:30:22;;;;;;;24.67;17.33;;;;;;;;;;5078606;28;20600;-68
2021/04/09 00:32:47;;;;;;;22.37;16.43;;;;;;;;;;5078828;28;20189;-67
2021/04/09 00:35:12;;;;;;;23.37;16.17;;;;;;;;;;5084380;28;20256;-68
2021/04/09 00:37:38;;;;;;;23.73;17.10;;;;;;;;;;5082959;28;20232;-67
2021/04/09 00:40:03;;;;;;;22.17;16.33;;;;;;;;;;5082258;28;20173;-68
2021/04/09 00:42:28;;;;;;;21.13;15.97;;;;;;;;;;5081336;28;20669;-68
2021/04/09 00:44:57;;;;;;;23.93;16.53;;;;;;;;;;5078019;28;20196;-68
2021/04/09 00:47:24;;;;;;;20.33;14.77;;;;;;;;;;5081416;28;20177;-68
2021/04/09 00:49:49;;;;;;;21.23;14.93;;;;;;;;;;5081816;28;20177;-68
2021/04/09 00:52:14;;;;;;;28.13;15.43;;;;;;;;;;5084100;28;20196;-67
2021/04/09 00:54:40;;;;;;;22.70;15.37;;;;;;;;;;5086721;28;20530;-68
2021/04/09 00:57:05;;;;;;;20.90;14.07;;;;;;;;;;5084849;28;20173;-67
2021/04/09 00:59:31;;;;;;;26.33;16.07;;;;;;;;;;5082194;28;20176;-69
2021/04/09 01:01:56;;;;;;;21.10;14.40;;;;;;;;;;5079716;28;20200;-68
2021/04/09 01:04:21;;;;;;;20.97;15.10;;;;;;;;;;5081088;28;20242;-68
2021/04/09 01:06:47;;;;;;;22.73;14.73;;;;;;;;;;5078801;28;20654;-68
2021/04/09 01:09:12;;;;;;;20.87;15.33;;;;;;;;;;5077705;28;20180;-68
2021/04/09 01:11:37;;;;;;;21.53;14.77;;;;;;;;;;5079143;28;20193;-68
2021/04/09 01:14:02;;;;;;;21.97;15.40;;;;;;;;;;5083691;28;20672;-68
2021/04/09 01:16:27;;;;;;;25.10;15.53;;;;;;;;;;5081614;28;20181;-68
2021/04/09 01:19:02;;;;;;;24.63;15.88;;;;;;;;;;5061131;28;20191;-68
2021/04/09 01:21:31;;;;;;;22.13;16.03;;;;;;;;;;5066505;28;20298;-68
2021/04/09 01:23:59;;;;;;;18.57;14.03;;;;;;;;;;5066853;28;20181;-68
2021/04/09 01:26:40;;;;;;;22.77;15.23;;;;;;;;;;5074604;28;20177;-69
2021/04/09 01:29:11;;;;;;;22.83;15.47;;;;;;;;;;5064787;28;20273;-69
2021/04/09 01:31:57;;;;;;;20.67;15.90;;;;;;;;;;5068802;28;20197;-69
2021/04/09 01:34:24;;;;;;;21.77;16.17;;;;;;;;;;5063691;28;20200;-68
2021/04/09 01:36:55;;;;;;;20.30;15.00;;;;;;;;;;5066843;28;20184;-67
2021/04/09 01:39:27;;;;;;;19.20;15.17;;;;;;;;;;5063414;28;20185;-68
2021/04/09 01:41:53;;;;;;;22.43;15.53;;;;;;;;;;5062473;28;20705;-68
2021/04/09 01:44:20;;;;;;;21.87;15.10;;;;;;;;;;5061143;28;20191;-67
2021/04/09 01:46:46;;;;;;;20.47;15.47;;;;;;;;;;5062904;28;20189;-66
2021/04/09 01:49:12;;;;;;;21.40;14.87;;;;;;;;;;5062759;28;20858;-68
2021/04/09 01:51:38;;;;;;;20.87;15.57;;;;;;;;;;5065814;28;20924;-67
2021/04/09 01:54:03;;;;;;;23.93;14.33;;;;;;;;;;5061573;28;20185;-66
2021/04/09 01:56:31;;;;;;;21.00;13.77;;;;;;;;;;5064570;28;20212;-68
2021/04/09 01:58:56;;;;;;;21.80;14.00;;;;;;;;;;5063524;28;20193;-66
2021/04/09 02:01:22;;;;;;;20.97;14.40;;;;;;;;;;5067303;28;20235;-68
2021/04/09 02:03:51;;;;;;;18.60;13.53;;;;;;;;;;5064892;28;20216;-68
2021/04/09 02:06:16;;;;;;;23.83;14.03;;;;;;;;;;5071029;28;20172;-69
2021/04/09 02:08:42;;;;;;;19.13;14.13;;;;;;;;;;5065287;28;20177;-68
2021/04/09 02:11:08;;;;;;;21.20;14.07;;;;;;;;;;5062230;28;20233;-67
2021/04/09 02:13:33;;;;;;;18.90;12.73;;;;;;;;;;5061608;28;20352;-69
2021/04/09 02:15:59;;;;;;;20.60;14.10;;;;;;;;;;5066205;28;20222;-68
2021/04/09 02:18:24;;;;;;;17.90;13.47;;;;;;;;;;5061817;28;20192;-69
2021/04/09 02:20:50;;;;;;;17.83;13.40;;;;;;;;;;5063845;28;20295;-70
2021/04/09 02:23:15;;;;;;;17.93;14.33;;;;;;;;;;5062432;28;20225;-68
2021/04/09 02:25:40;;;;;;;18.00;13.07;;;;;;;;;;5064485;28;20263;-70
2021/04/09 02:28:06;;;;;;;20.97;14.80;;;;;;;;;;5066473;28;20173;-69
2021/04/09 02:30:31;;;;;;;18.30;14.00;;;;;;;;;;5062304;28;20204;-69
2021/04/09 02:32:56;;;;;;;18.63;13.57;;;;;;;;;;5063389;28;20536;-69
2021/04/09 02:35:21;;;;;;;18.97;13.77;;;;;;;;;;5062304;28;20234;-68
2021/04/09 02:37:48;;;;;;;19.13;13.87;;;;;;;;;;5061227;28;20184;-70
2021/04/09 02:40:16;;;;;;;17.73;14.00;;;;;;;;;;5062272;28;20712;-69
2021/04/09 02:42:44;;;;;;;23.20;13.40;;;;;;;;;;5062786;28;20213;-69
2021/04/09 02:45:09;;;;;;;18.13;13.60;;;;;;;;;;5063539;28;20191;-67
2021/04/09 02:47:36;;;;;;;17.83;14.20;;;;;;;;;;5067154;28;20188;-69
2021/04/09 02:50:24;;;;;;;18.70;13.43;;;;;;;;;;5062583;28;20599;-67
2021/04/09 02:52:52;;;;;;;22.97;14.40;;;;;;;;;;5063065;28;20249;-69
2021/04/09 02:55:19;;;;;;;17.80;14.20;;;;;;;;;;5061684;28;20180;-66
2021/04/09 02:57:45;;;;;;;17.27;14.47;;;;;;;;;;5062966;28;20280;-67
2021/04/09 03:00:11;;;;;;;18.97;13.70;;;;;;;;;;5061832;28;20207;-67
2021/04/09 03:02:37;;;;;;;19.43;14.03;;;;;;;;;;5069034;28;20216;-68
2021/04/09 03:05:09;;;;;;;19.60;13.30;;;;;;;;;;5067250;28;20181;-67
2021/04/09 03:07:37;;;;;;;19.83;13.93;;;;;;;;;;5073938;28;20192;-66
2021/04/09 03:10:04;;;;;;;19.63;14.47;;;;;;;;;;5062901;28;20218;-67
2021/04/09 03:12:31;;;;;;;19.50;14.57;;;;;;;;;;5063345;28;20184;-70
2021/04/09 03:14:56;;;;;;;20.60;14.57;;;;;;;;;;5061828;28;20454;-69
2021/04/09 03:17:25;;;;;;;18.63;13.53;;;;;;;;;;5065654;28;20238;-67
2021/04/09 03:19:50;;;;;;;21.00;14.00;;;;;;;;;;5065345;28;20310;-66
2021/04/09 03:22:16;;;;;;;18.37;13.23;;;;;;;;;;5062314;28;20265;-70
2021/04/09 03:24:41;;;;;;;21.60;13.50;;;;;;;;;;5062800;28;20829;-66
2021/04/09 03:27:08;;;;;;;20.30;13.40;;;;;;;;;;5062871;28;20276;-70
2021/04/09 03:29:34;;;;;;;16.87;13.17;;;;;;;;;;5062142;28;20185;-67
2021/04/09 03:31:59;;;;;;;19.30;13.33;;;;;;;;;;5063333;28;20215;-69
2021/04/09 03:34:24;;;;;;;21.53;12.53;;;;;;;;;;5064601;28;20189;-67
2021/04/09 03:36:49;;;;;;;19.50;13.10;;;;;;;;;;5060471;28;20605;-69
2021/04/09 03:39:14;;;;;;;19.27;13.77;;;;;;;;;;5061721;28;20503;-69
2021/04/09 03:41:40;;;;;;;18.83;13.90;;;;;;;;;;5062527;28;20580;-67
2021/04/09 03:44:05;;;;;;;23.93;12.97;;;;;;;;;;5062724;28;20188;-68
2021/04/09 03:46:30;;;;;;;17.10;12.33;;;;;;;;;;5064932;28;20638;-68
2021/04/09 03:48:55;;;;;;;19.10;12.93;;;;;;;;;;5068429;28;20541;-69
2021/04/09 03:51:21;;;;;;;16.60;12.50;;;;;;;;;;5067124;28;20208;-68
2021/04/09 03:53:46;;;;;;;19.90;12.90;;;;;;;;;;5061728;28;21279;-68
2021/04/09 03:56:11;;;;;;;18.57;12.93;;;;;;;;;;5066657;28;20187;-67
2021/04/09 03:58:36;;;;;;;16.97;12.90;;;;;;;;;;5064303;28;20184;-68
2021/04/09 04:01:01;;;;;;;15.37;11.97;;;;;;;;;;5064815;28;20794;-68
2021/04/09 04:03:27;;;;;;;17.47;12.43;;;;;;;;;;5061013;28;20242;-68
2021/04/09 04:05:52;;;;;;;17.43;13.30;;;;;;;;;;5063430;28;20169;-68
2021/04/09 04:08:17;;;;;;;13.57;11.30;;;;;;;;;;5072643;28;20192;-67
2021/04/09 04:10:42;;;;;;;22.13;12.80;;;;;;;;;;5066162;28;20733;-69
2021/04/09 04:13:08;;;;;;;15.43;12.40;;;;;;;;;;5064961;28;20250;-70
2021/04/09 04:15:33;;;;;;;18.60;11.70;;;;;;;;;;5064803;28;20181;-68
2021/04/09 04:17:58;;;;;;;15.90;12.10;;;;;;;;;;5063995;28;20177;-68
2021/04/09 04:20:23;;;;;;;18.20;12.50;;;;;;;;;;5067270;28;20737;-69
2021/04/09 04:22:49;;;;;;;15.57;11.70;;;;;;;;;;5064848;28;20201;-68
2021/04/09 04:25:14;;;;;;;21.87;13.17;;;;;;;;;;5067659;28;20168;-68
2021/04/09 04:27:39;;;;;;;18.70;12.13;;;;;;;;;;5070635;28;21026;-68
2021/04/09 04:30:05;;;;;;;15.77;11.93;;;;;;;;;;5064742;28;20176;-68
2021/04/09 04:32:30;;;;;;;20.73;13.07;;;;;;;;;;5065761;28;20247;-67
2021/04/09 04:34:55;;;;;;;17.37;12.87;;;;;;;;;;5071034;28;21557;-68
2021/04/09 04:37:20;;;;;;;18.83;13.63;;;;;;;;;;5070351;28;20188;-66
2021/04/09 04:39:46;;;;;;;20.60;13.47;;;;;;;;;;5064723;28;20202;-68
2021/04/09 04:42:11;;;;;;;23.10;12.37;;;;;;;;;;5065324;28;20791;-68
2021/04/09 04:44:36;;;;;;;16.70;13.50;;;;;;;;;;5066936;28;20169;-67
2021/04/09 04:47:01;;;;;;;16.63;12.53;;;;;;;;;;5064400;28;20189;-67
2021/04/09 04:49:26;;;;;;;18.67;13.33;;;;;;;;;;5065349;28;20252;-66
2021/04/09 04:51:51;;;;;;;19.10;12.93;;;;;;;;;;5067261;28;20204;-68
2021/04/09 04:54:17;;;;;;;18.07;12.37;;;;;;;;;;5063787;28;22185;-67
2021/04/09 04:56:42;;;;;;;20.53;12.17;;;;;;;;;;5064507;28;20185;-67
2021/04/09 04:59:07;;;;;;;16.70;12.43;;;;;;;;;;5065271;28;20668;-67
2021/04/09 05:01:32;;;;;;;18.63;13.47;;;;;;;;;;5068098;28;20200;-68
2021/04/09 05:03:57;;;;;;;18.10;13.33;;;;;;;;;;5068743;28;20629;-68
2021/04/09 05:06:23;;;;;;;19.03;11.93;;;;;;;;;;5065349;28;20169;-68
2021/04/09 05:08:48;;;;;;;17.47;12.73;;;;;;;;;;5065022;28;20184;-66
2021/04/09 05:11:13;;;;;;;16.53;12.17;;;;;;;;;;5070365;28;20390;-68
2021/04/09 05:13:38;;;;;;;22.40;12.93;;;;;;;;;;5065397;28;20197;-67
2021/04/09 05:16:03;;;;;;;17.80;12.33;;;;;;;;;;5063761;28;20173;-66
2021/04/09 05:18:29;;;;;;;19.57;12.83;;;;;;;;;;5065378;28;20650;-69
2021/04/09 05:20:54;;;;;;;16.83;11.97;;;;;;;;;;5067083;28;20341;-66
2021/04/09 05:23:19;;;;;;;20.60;13.17;;;;;;;;;;5064718;28;20204;-67
2021/04/09 05:25:44;;;;;;;18.83;12.67;;;;;;;;;;5063682;28;20201;-67
2021/04/09 05:28:09;;;;;;;18.90;13.33;;;;;;;;;;5062762;28;20177;-67
2021/04/09 05:30:34;;;;;;;18.27;12.93;;;;;;;;;;5070600;28;20199;-66
2021/04/09 05:33:00;;;;;;;20.70;13.20;;;;;;;;;;5065021;28;20259;-67
2021/04/09 05:35:25;;;;;;;16.33;13.03;;;;;;;;;;5066067;28;20743;-68
2021/04/09 05:37:51;;;;;;;21.00;12.60;;;;;;;;;;5064162;28;20223;-68
2021/04/09 05:40:16;;;;;;;18.07;12.97;;;;;;;;;;5062927;28;20295;-68
2021/04/09 05:42:41;;;;;;;16.10;12.80;;;;;;;;;;5063710;28;20212;-68
2021/04/09 05:45:07;;;;;;;18.70;12.60;;;;;;;;;;5062899;28;20646;-66
2021/04/09 05:47:32;;;;;;;16.60;11.43;;;;;;;;;;5067388;28;20687;-67
2021/04/09 05:49:57;;;;;;;13.47;11.60;;;;;;;;;;5064314;28;20175;-67
2021/04/09 05:52:22;;;;;;;16.97;12.63;;;;;;;;;;5068859;28;20184;-66
2021/04/09 05:54:48;;;;;;;18.53;12.83;;;;;;;;;;5063687;28;20654;-68
2021/04/09 05:57:13;;;;;;;17.47;11.87;;;;;;;;;;5068407;28;20188;-68
2021/04/09 05:59:38;;;;;;;16.27;10.83;;;;;;;;;;5062799;28;20181;-68
2021/04/09 06:02:03;;;;;;;19.63;10.80;;;;;;;;;;5062737;28;20204;-67
2021/04/09 06:04:28;;;;;;;14.40;11.73;;;;;;;;;;5063381;28;20180;-67
2021/04/09 06:06:54;;;;;;;17.57;11.63;;;;;;;;;;5071995;28;20526;-69
2021/04/09 06:09:19;;;;;;;17.00;11.43;;;;;;;;;;5062984;28;20291;-68
2021/04/09 06:11:44;;;;;;;16.43;12.33;;;;;;;;;;5062759;28;20664;-67
2021/04/09 06:14:10;;;;;;;13.03;11.33;;;;;;;;;;5068209;28;20184;-66
2021/04/09 06:16:35;;;;;;;13.57;10.43;;;;;;;;;;5064278;28;20275;-67
2021/04/09 06:19:01;;;;;;;16.57;11.43;;;;;;;;;;5061872;28;20806;-68
2021/04/09 06:21:27;;;;;;;15.27;10.40;;;;;;;;;;5069426;28;20222;-68
2021/04/09 06:23:52;;;;;;;18.20;10.30;;;;;;;;;;5061436;28;20184;-68
2021/04/09 06:26:17;;;;;;;15.73;10.03;;;;;;;;;;5067961;28;20175;-68
2021/04/09 06:28:42;;;;;;;17.30;10.60;;;;;;;;;;5063923;28;20907;-67
2021/04/09 06:31:07;;;;;;;14.27;10.50;;;;;;;;;;5061586;28;20224;-67
2021/04/09 06:33:34;;;;;;;14.80;10.80;;;;;;;;;;5061200;28;20208;-69
2021/04/09 06:35:59;;;;;;;13.73;10.10;;;;;;;;;;5067683;28;20669;-69
2021/04/09 06:38:24;;;;;;;21.07;10.70;;;;;;;;;;5059179;28;20176;-68
2021/04/09 06:40:49;;;;;;;13.43;10.43;;;;;;;;;;5065834;28;20215;-69
2021/04/09 06:43:15;;;;;;;14.20;10.63;;;;;;;;;;5062089;28;20294;-69
2021/04/09 06:45:40;;;;;;;15.00;9.43;;;;;;;;;;5064241;28;20172;-67
2021/04/09 06:48:06;;;;;;;14.93;9.40;;;;;;;;;;5080986;28;20172;-67
2021/04/09 06:50:31;;;;;;;13.87;9.40;;;;;;;;;;5079350;28;20264;-67
2021/04/09 06:52:57;;;;;;;13.70;9.97;;;;;;;;;;5062683;28;20622;-66
2021/04/09 06:55:23;;;;;;;13.37;9.37;;;;;;;;;;5061788;28;20185;-67
2021/04/09 06:57:49;;;;;;;13.50;9.20;;;;;;;;;;5062489;28;20864;-67
2021/04/09 07:00:15;;;;;;;14.40;10.33;;;;;;;;;;5062583;28;20792;-67
2021/04/09 07:02:43;;;;;;;13.70;9.43;;;;;;;;;;5061660;28;20221;-66
2021/04/09 07:05:09;;;;;;;11.37;8.37;;;;;;;;;;5064709;28;20172;-70
2021/04/09 07:07:34;;;;;;;13.13;8.57;;;;;;;;;;5069938;28;20234;-66
2021/04/09 07:09:59;;;;;;;10.07;8.53;;;;;;;;;;5065247;28;20233;-69
2021/04/09 07:12:26;;;;;;;15.23;8.90;;;;;;;;;;5064358;28;20267;-67
2021/04/09 07:14:54;;;;;;;12.30;9.27;;;;;;;;;;5060573;28;20245;-65
2021/04/09 07:17:23;;;;;;;15.10;8.93;;;;;;;;;;5062365;28;20184;-67
2021/04/09 07:19:48;;;;;;;12.47;9.23;;;;;;;;;;5064769;28;20193;-69
2021/04/09 07:22:13;;;;;;;11.17;7.90;;;;;;;;;;5065311;28;20200;-67
2021/04/09 07:24:39;;;;;;;12.27;8.00;;;;;;;;;;5063131;28;20176;-68
2021/04/09 07:27:04;;;;;;;18.87;8.70;;;;;;;;;;5063987;28;20176;-70
2021/04/09 07:29:32;;;;;;;11.47;7.70;;;;;;;;;;5068520;28;20180;-67
2021/04/09 07:31:57;;;;;;;12.33;8.73;;;;;;;;;;5064875;28;20587;-67
2021/04/09 07:34:22;;;;;;;13.07;8.50;;;;;;;;;;5070983;28;20204;-71
2021/04/09 07:36:54;;;;;;;10.73;8.17;;;;;;;;;;5068094;28;20465;-69
2021/04/09 07:39:32;;;;;;;11.43;7.90;;;;;;;;;;5063242;28;20287;-68
2021/04/09 07:42:10;;;;;;;10.30;7.83;;;;;;;;;;5066875;28;20207;-69
2021/04/09 07:44:39;;;;;;;11.37;7.60;;;;;;;;;;5065989;28;20186;-69
2021/04/09 07:47:11;;;;;;;10.67;7.83;;;;;;;;;;5069007;28;20255;-68
2021/04/09 07:49:36;;;;;;;11.17;7.90;;;;;;;;;;5067726;28;20275;-68
2021/04/09 07:52:12;;;;;;;13.23;7.90;;;;;;;;;;5069467;28;20303;-68
2021/04/09 07:54:37;;;;;;;10.03;7.80;;;;;;;;;;5067294;28;20188;-69
2021/04/09 07:57:03;;;;;;;14.97;8.07;;;;;;;;;;5070914;28;20187;-69
2021/04/09 07:59:42;;;;;;;15.53;8.10;;;;;;;;;;5069280;28;20189;-65
2021/04/09 08:02:08;;;;;;;11.33;7.40;;;;;;;;;;5065334;28;20600;-68
2021/04/09 08:04:36;;;;;;;12.57;7.53;;;;;;;;;;5065480;28;20191;-69
2021/04/09 08:07:02;;;;;;;12.40;8.50;;;;;;;;;;5070721;28;20176;-69
2021/04/09 08:09:27;;;;;;;12.80;7.60;;;;;;;;;;5065918;28;20278;-67
2021/04/09 08:11:52;;;;;;;10.33;7.63;;;;;;;;;;5071835;28;20196;-67
2021/04/09 08:14:26;;;;;;;13.70;7.80;;;;;;;;;;5066266;28;20196;-67
2021/04/09 08:16:52;;;;;;;10.27;7.53;;;;;;;;;;5069577;28;20196;-67
2021/04/09 08:19:19;;;;;;;14.80;8.30;;;;;;;;;;5065857;28;20178;-68
2021/04/09 08:21:48;;;;;;;11.93;7.67;;;;;;;;;;5072468;28;20594;-67
2021/04/09 08:24:14;;;;;;;12.77;7.73;;;;;;;;;;5067371;28;20227;-67
2021/04/09 08:26:39;;;;;;;13.63;7.63;;;;;;;;;;5071766;28;20180;-66
2021/04/09 08:29:08;;;;;;;13.90;7.83;;;;;;;;;;5066206;28;20765;-67
2021/04/09 08:31:34;;;;;;;9.07;7.43;;;;;;;;;;5065052;28;20200;-66
2021/04/09 08:33:59;;;;;;;10.53;7.27;;;;;;;;;;5063296;28;20192;-67
2021/04/09 08:36:26;;;;;;;15.93;7.40;;;;;;;;;;5064184;28;20286;-68
2021/04/09 08:38:52;;;;;;;10.50;6.87;;;;;;;;;;5065275;28;20205;-67
2021/04/09 08:41:17;;;;;;;9.20;6.70;;;;;;;;;;5068001;28;20315;-67
2021/04/09 08:43:43;;;;;;;10.67;7.23;;;;;;;;;;5065523;28;20176;-67
2021/04/09 08:46:09;;;;;;;12.23;7.43;;;;;;;;;;5066508;28;20177;-67
2021/04/09 08:48:36;;;;;;;10.97;7.30;;;;;;;;;;5068633;28;20173;-68
2021/04/09 08:51:01;;;;;;;9.63;6.70;;;;;;;;;;5068663;28;20246;-68
2021/04/09 08:53:28;;;;;;;11.17;6.83;;;;;;;;;;5065969;28;20184;-68
2021/04/09 08:55:53;;;;;;;10.90;6.70;;;;;;;;;;5070897;28;20188;-67
2021/04/09 08:58:19;;;;;;;11.97;6.57;;;;;;;;;;5068593;28;20549;-66
2021/04/09 09:00:45;;;;;;;9.53;6.10;;;;;;;;;;5066406;28;20211;-67
2021/04/09 09:03:24;;;;;;;8.70;6.83;;;;;;;;;;5067956;28;20212;-67
2021/04/09 09:06:00;;;;;;;8.80;7.20;;;;;;;;;;5074202;28;20200;-67
2021/04/09 09:08:40;;;;;;;9.03;6.23;;;;;;;;;;5072572;28;20180;-67
2021/04/09 09:11:06;;;;;;;11.20;7.03;;;;;;;;;;5067402;28;20288;-67
2021/04/09 09:13:31;;;;;;;11.73;6.73;;;;;;;;;;5067446;28;20192;-67
2021/04/09 09:15:58;;;;;;;11.53;6.80;;;;;;;;;;5063961;28;20192;-68
2021/04/09 09:18:23;;;;;;;12.07;6.90;;;;;;;;;;5064786;28;20184;-67
2021/04/09 09:21:09;;;;;;;11.77;6.70;;;;;;;;;;5069829;28;20767;-68
2021/04/09 09:23:49;;;;;;;10.23;6.90;;;;;;;;;;5063781;28;20629;-67
2021/04/09 09:26:29;;;;;;;9.60;7.10;;;;;;;;;;5065205;28;20258;-67
2021/04/09 09:29:09;;;;;;;11.00;6.60;;;;;;;;;;5064333;28;20180;-66
2021/04/09 09:31:41;;;;;;;12.03;6.87;;;;;;;;;;5064130;28;20241;-67
2021/04/09 09:34:23;;;;;;;11.53;6.63;;;;;;;;;;5065624;28;20279;-66
2021/04/09 09:36:51;;;;;;;8.10;6.67;;;;;;;;;;5065831;28;20736;-67
2021/04/09 09:39:30;;;;;;;8.53;6.27;;;;;;;;;;5063523;28;20282;-67
2021/04/09 09:41:55;;;;;;;9.70;6.10;;;;;;;;;;5069852;28;20227;-67
2021/04/09 09:44:34;;;;;;;10.60;6.40;;;;;;;;;;5063989;28;20180;-66
2021/04/09 09:46:59;;;;;;;12.23;6.43;;;;;;;;;;5066583;28;20211;-67
2021/04/09 09:49:25;;;;;;;9.93;6.60;;;;;;;;;;5063280;28;20617;-70
2021/04/09 09:51:50;;;;;;;9.07;6.67;;;;;;;;;;5068800;28;20456;-65
2021/04/09 09:54:22;;;;;;;8.63;6.00;;;;;;;;;;5063058;28;20192;-69
2021/04/09 09:56:47;;;;;;;6.93;6.07;;;;;;;;;;5063074;28;20891;-69
2021/04/09 09:59:16;;;;;;;8.67;6.13;;;;;;;;;;5065727;28;20188;-69
2021/04/09 10:01:46;;;;;;;8.80;6.23;;;;;;;;;;5069938;28;20270;-68
2021/04/09 10:04:13;;;;;;;7.70;6.10;;;;;;;;;;5064432;28;20600;-70
2021/04/09 10:06:39;;;;;;;8.05;6.00;;;;;;;;;;5068583;28;20191;-69
2021/04/09 10:09:04;;;;;;;9.18;7.10;;;;;;;;;;5064518;28;20172;-68
2021/04/09 10:11:30;;;;;;;13.82;7.70;;;;;;;;;;5063294;28;20215;-69
2021/04/09 10:13:56;;;;;;;10.52;7.47;;;;;;;;;;5079688;28;20165;-69
2021/04/09 10:16:23;;;;;;;11.00;7.33;;;;;;;;;;5065575;28;20230;-67
2021/04/09 10:18:53;;;;;;;10.32;7.13;;;;;;;;;;5065572;28;20216;-69
2021/04/09 10:21:18;;;;;;;9.43;6.80;;;;;;;;;;5063554;28;20201;-67
2021/04/09 10:23:44;;;;;;;7.93;7.13;;;;;;;;;;5061096;28;20188;-67
2021/04/09 10:26:10;;;;;;;7.78;6.60;;;;;;;;;;5063463;28;20568;-67
2021/04/09 10:28:36;;;;;;;8.45;6.95;;;;;;;;;;5061097;28;20609;-69
2021/04/09 10:31:10;;;;;;;8.38;7.50;;;;;;;;;;5066323;28;20192;-68
2021/04/09 10:33:39;;;;;;;8.82;6.82;;;;;;;;;;5059865;28;20244;-67
2021/04/09 10:36:16;;;;;;;11.25;6.97;;;;;;;;;;5062651;28;20280;-69
2021/04/09 10:38:42;;;;;;;9.45;7.53;;;;;;;;;;5061668;28;20191;-68
2021/04/09 10:41:07;;;;;;;11.05;7.07;;;;;;;;;;5064572;28;20553;-69
2021/04/09 10:43:35;;;;;;;7.18;6.22;;;;;;;;;;5062627;28;20209;-67
2021/04/09 10:46:04;;;;;;;9.13;5.88;;;;;;;;;;5067218;28;20236;-68
2021/04/09 10:48:29;;;;;;;8.50;6.05;;;;;;;;;;5060785;28;20711;-67
2021/04/09 10:50:55;;;;;;;6.53;5.22;;;;;;;;;;5064348;28;20198;-68
2021/04/09 10:53:20;;;;;;;5.82;5.22;;;;;;;;;;5064595;28;20181;-69
2021/04/09 10:55:46;;;;;;;8.27;5.97;;;;;;;;;;5064055;28;20184;-68
2021/04/09 10:58:15;;;;;;;8.73;5.90;;;;;;;;;;5064097;28;21198;-68
2021/04/09 11:00:41;;;;;;;8.45;5.00;;;;;;;;;;5059553;28;20201;-69
2021/04/09 11:03:06;;;;;;;7.40;5.32;;;;;;;;;;5065235;28;20245;-67
2021/04/09 11:05:32;;;;;;;6.45;5.47;;;;;;;;;;5062366;28;20237;-68
2021/04/09 11:07:58;;;;;;;6.30;5.53;;;;;;;;;;5064388;28;20188;-68
2021/04/09 11:10:33;;;;;;;7.60;5.55;;;;;;;;;;5069653;28;20249;-68
2021/04/09 11:12:59;;;;;;;11.47;4.80;;;;;;;;;;5058688;28;20184;-67
2021/04/09 11:15:24;;;;;;;8.45;5.25;;;;;;;;;;5060473;28;20214;-69
2021/04/09 11:17:53;;;;;;;6.05;4.82;;;;;;;;;;5068785;28;20183;-67
2021/04/09 11:20:19;;;;;;;10.20;4.83;;;;;;;;;;5065238;28;20228;-68
2021/04/09 11:22:44;;;;;;;8.33;4.20;;;;;;;;;;5064684;28;20333;-68
2021/04/09 11:25:09;;;;;;;7.27;4.27;;;;;;;;;;5071004;28;20177;-68
2021/04/09 11:27:38;;;;;;;7.87;4.13;;;;;;;;;;5066693;28;20542;-70
2021/04/09 11:30:14;;;;;;;6.23;4.30;;;;;;;;;;5064320;28;20721;-69
2021/04/09 11:32:41;;;;;;;6.90;4.30;;;;;;;;;;5070649;28;20258;-68
2021/04/09 11:35:10;;;;;;;7.53;4.40;;;;;;;;;;5066593;28;20253;-68
2021/04/09 11:37:46;;;;;;;5.37;3.73;;;;;;;;;;5066797;28;20196;-69
2021/04/09 11:40:12;;;;;;;5.63;3.80;;;;;;;;;;5066991;28;20200;-68
2021/04/09 11:42:37;;;;;;;8.90;4.60;;;;;;;;;;5066029;28;20197;-67
2021/04/09 11:45:07;;;;;;;5.70;3.97;;;;;;;;;;5065836;28;20191;-68
2021/04/09 11:47:33;;;;;;;15.80;5.03;;;;;;;;;;5068955;28;20253;-67
2021/04/09 11:49:59;;;;;;;6.37;4.10;;;;;;;;;;5062029;28;20192;-66
2021/04/09 11:52:25;;;;;;;9.32;4.30;;;;;;;;;;5069735;28;20196;-67
2021/04/09 11:54:50;;;;;;;6.87;4.17;;;;;;;;;;5065103;28;20296;-69
2021/04/09 11:57:24;;;;;;;5.00;3.53;;;;;;;;;;5070172;28;20184;-68
2021/04/09 11:59:50;;;;;;;7.63;4.38;;;;;;;;;;5066410;28;20863;-68
2021/04/09 12:02:16;;;;;;;9.55;4.32;;;;;;;;;;5068243;28;20615;-69
2021/04/09 12:04:41;;;;;;;5.25;3.20;;;;;;;;;;5064210;28;20180;-67
2021/04/09 12:07:14;;;;;;;7.20;4.78;;;;;;;;;;5072405;28;20197;-68
2021/04/09 12:09:40;;;;;;;7.30;4.33;;;;;;;;;;5064587;28;20443;-67
2021/04/09 12:12:06;;;;;;;7.97;4.90;;;;;;;;;;5069715;28;20204;-68
2021/04/09 12:14:35;;;;;;;6.25;4.32;;;;;;;;;;5067943;28;20184;-69
2021/04/09 12:17:01;;;;;;;9.05;4.13;;;;;;;;;;5081844;28;20286;-69
2021/04/09 12:19:26;;;;;;;6.13;3.53;;;;;;;;;;5079346;28;20263;-69
2021/04/09 12:21:51;;;;;;;5.95;3.58;;;;;;;;;;5082977;28;20211;-68
2021/04/09 12:24:17;;;;;;;6.68;3.38;;;;;;;;;;5068976;28;20176;-68
2021/04/09 12:26:42;;;;;;;5.15;3.50;;;;;;;;;;5066501;28;20194;-69
2021/04/09 12:29:07;;;;;;;6.35;3.22;;;;;;;;;;5073908;28;20175;-68
2021/04/09 12:31:32;;;;;;;4.33;3.00;;;;;;;;;;5076716;28;20196;-68
2021/04/09 12:33:57;;;;;;;6.83;3.53;;;;;;;;;;5066616;28;20968;-68
2021/04/09 12:36:22;;;;;;;6.72;3.22;;;;;;;;;;5071083;28;20422;-68
2021/04/09 12:38:48;;;;;;;7.63;3.27;;;;;;;;;;5065064;28;20732;-69
2021/04/09 12:41:13;;;;;;;4.43;2.55;;;;;;;;;;5068307;28;20441;-69
2021/04/09 12:43:38;;;;;;;3.47;2.10;;;;;;;;;;5064273;28;20295;-69
2021/04/09 12:46:03;;;;;;;7.45;3.10;;;;;;;;;;5066776;28;20424;-67
2021/04/09 12:48:28;;;;;;;5.93;2.58;;;;;;;;;;5063030;28;20252;-68
2021/04/09 12:50:54;;;;;;;3.90;2.88;;;;;;;;;;5066587;28;20198;-69
2021/04/09 12:53:19;;;;;;;5.38;3.20;;;;;;;;;;5065573;28;22111;-68
2021/04/09 12:55:44;;;;;;;4.38;2.40;;;;;;;;;;5063650;28;20259;-68
2021/04/09 12:58:09;;;;;;;2.63;1.90;;;;;;;;;;5066349;28;20177;-68
2021/04/09 13:00:34;;;;;;;3.90;2.00;;;;;;;;;;5065186;28;20917;-68
2021/04/09 13:03:01;;;;;;;6.33;2.57;;;;;;;;;;5065665;28;20662;-66
2021/04/09 13:05:27;;;;;;;3.10;2.50;;;;;;;;;;5064043;28;20426;-68
2021/04/09 13:07:52;;;;;;;5.45;2.72;;;;;;;;;;5068827;28;20232;-67
2021/04/09 13:10:17;;;;;;;3.30;2.57;;;;;;;;;;5063100;28;20196;-67
2021/04/09 13:12:43;;;;;;;5.70;2.80;;;;;;;;;;5070530;28;20434;-67
2021/04/09 13:15:08;;;;;;;6.25;2.55;;;;;;;;;;5073973;28;20173;-68
2021/04/09 13:17:33;;;;;;;3.72;2.25;;;;;;;;;;5064394;28;20689;-68
2021/04/09 13:19:58;;;;;;;5.80;2.45;;;;;;;;;;5065404;28;20203;-68
2021/04/09 13:22:24;;;;;;;4.25;2.28;;;;;;;;;;5063247;28;20207;-67
2021/04/09 13:24:49;;;;;;;3.78;2.22;;;;;;;;;;5064180;28;20176;-67
2021/04/09 13:27:17;;;;;;;5.00;3.20;;;;;;;;;;5063749;28;20177;-68
2021/04/09 13:29:43;;;;;;;3.97;2.35;;;;;;;;;;5068575;28;20177;-68
2021/04/09 13:32:08;;;;;;;3.95;2.10;;;;;;;;;;5066587;28;20211;-67
2021/04/09 13:34:33;;;;;;;3.70;2.20;;;;;;;;;;5063432;28;20562;-68
2021/04/09 13:36:58;;;;;;;4.47;2.60;;;;;;;;;;5078680;28;20718;-67
2021/04/09 13:39:24;;;;;;;5.78;2.40;;;;;;;;;;5080579;28;20189;-68
2021/04/09 13:41:49;;;;;;;5.25;2.58;;;;;;;;;;5069370;28;20212;-66
2021/04/09 13:44:14;;;;;;;6.20;2.75;;;;;;;;;;5065819;28;20678;-67
2021/04/09 13:46:40;;;;;;;5.72;2.10;;;;;;;;;;5068402;28;20887;-67
2021/04/09 13:49:05;;;;;;;3.80;2.85;;;;;;;;;;5063347;28;20255;-69
2021/04/09 13:51:30;;;;;;;3.13;2.55;;;;;;;;;;5064158;28;20677;-67
2021/04/09 13:53:55;;;;;;;5.20;2.38;;;;;;;;;;5063348;28;20554;-67
2021/04/09 13:56:20;;;;;;;4.50;2.55;;;;;;;;;;5065998;28;21560;-67
2021/04/09 13:58:47;;;;;;;3.70;2.28;;;;;;;;;;5063484;28;20183;-67
2021/04/09 14:01:13;;;;;;;4.45;2.58;;;;;;;;;;5069305;28;20269;-67
2021/04/09 14:03:38;;;;;;;2.63;2.22;;;;;;;;;;5086682;28;20212;-68
2021/04/09 14:06:03;;;;;;;4.47;2.20;;;;;;;;;;5063441;28;20218;-68
2021/04/09 14:08:28;;;;;;;5.07;2.25;;;;;;;;;;5070548;28;20477;-68
2021/04/09 14:10:54;;;;;;;3.28;2.20;;;;;;;;;;5060865;28;20732;-69
2021/04/09 14:13:21;;;;;;;5.45;2.20;;;;;;;;;;5062051;28;20306;-66
2021/04/09 14:15:46;;;;;;;4.53;2.53;;;;;;;;;;5066132;28;20546;-69
2021/04/09 14:18:11;;;;;;;4.78;2.42;;;;;;;;;;5060710;28;20288;-68
2021/04/09 14:20:36;;;;;;;4.05;2.80;;;;;;;;;;5062567;28;20278;-68
2021/04/09 14:23:01;;;;;;;3.30;1.95;;;;;;;;;;5064635;28;20287;-69
2021/04/09 14:25:27;;;;;;;4.15;2.00;;;;;;;;;;5061488;28;20183;-66